createdAt,value
2019-03-22T00:06:04.232Z,43.33
2019-03-22T00:08:32.656Z,42.00
2019-03-22T00:11:01.116Z,44.13
2019-03-22T00:13:29.547Z,40.23
2019-03-22T00:15:57.975Z,40.33
2019-03-22T00:18:26.427Z,39.17
2019-03-22T00:21:14.216Z,40.63
2019-03-22T00:23:42.673Z,41.00
2019-03-22T00:26:11.111Z,38.80
2019-03-22T00:28:39.560Z,38.40
2019-03-22T00:31:08.007Z,40.27
2019-03-22T00:33:36.479Z,39.00
2019-03-22T00:36:24.272Z,42.30
2019-03-22T00:38:52.724Z,42.53
2019-03-22T00:41:21.188Z,39.30
2019-03-22T00:43:49.640Z,40.27
2019-03-22T00:46:18.096Z,41.23
2019-03-22T00:48:46.598Z,43.27
2019-03-22T00:51:15.060Z,39.00
2019-03-22T00:53:43.488Z,47.30
2019-03-22T00:56:11.943Z,42.87
2019-03-22T00:58:59.699Z,42.63
2019-03-22T01:01:28.153Z,43.67
2019-03-22T01:03:56.656Z,42.77
2019-03-22T01:06:44.456Z,43.80
2019-03-22T01:09:12.896Z,40.13
2019-03-22T01:11:41.348Z,39.83
2019-03-22T01:14:09.799Z,44.20
2019-03-22T01:16:57.596Z,45.43
2019-03-22T01:19:26.023Z,40.40
2019-03-22T01:21:54.481Z,41.53
2019-03-22T01:24:22.936Z,42.07
2019-03-22T01:26:51.367Z,42.53
2019-03-22T01:29:19.825Z,44.40
2019-03-22T01:31:48.619Z,40.40
2019-03-22T01:34:17.115Z,42.50
2019-03-22T01:36:45.536Z,44.13
2019-03-22T01:39:13.984Z,42.00
2019-03-22T01:41:42.440Z,41.97
2019-03-22T01:44:10.931Z,42.87
2019-03-22T01:46:39.396Z,52.17
2019-03-22T01:49:07.920Z,42.53
2019-03-22T01:51:36.387Z,40.27
2019-03-22T01:54:04.899Z,44.80
2019-03-22T01:56:33.331Z,41.60
2019-03-22T01:59:01.783Z,44.77
2019-03-22T02:01:30.243Z,44.50
2019-03-22T02:04:18.020Z,45.20
2019-03-22T02:06:46.483Z,42.30
2019-03-22T02:09:14.916Z,46.20
2019-03-22T02:11:43.370Z,42.93
2019-03-22T02:14:11.832Z,56.83
2019-03-22T02:16:59.628Z,45.60
2019-03-22T02:19:28.056Z,40.20
2019-03-22T02:21:56.510Z,45.10
2019-03-22T02:24:24.942Z,41.10
2019-03-22T02:26:53.395Z,45.17
2019-03-22T02:29:21.868Z,41.80
2019-03-22T02:31:50.299Z,42.37
2019-03-22T02:34:18.726Z,43.17
2019-03-22T02:37:06.604Z,40.07
2019-03-22T02:39:35.148Z,42.50
2019-03-22T02:42:23.215Z,42.50
2019-03-22T02:44:51.681Z,40.70
2019-03-22T02:47:20.106Z,41.90
2019-03-22T02:49:48.556Z,44.67
2019-03-22T02:52:17.016Z,46.03
2019-03-22T02:54:45.444Z,43.30
2019-03-22T02:57:13.924Z,41.73
2019-03-22T02:59:42.427Z,41.57
2019-03-22T03:02:10.965Z,44.27
2019-03-22T03:04:58.731Z,44.27
2019-03-22T03:07:27.199Z,43.70
2019-03-22T03:10:15.591Z,48.17
2019-03-22T03:12:44.926Z,39.20
2019-03-22T03:15:17.920Z,48.43
2019-03-22T03:17:46.436Z,44.90
2019-03-22T03:20:19.410Z,43.37
2019-03-22T03:22:47.973Z,43.77
2019-03-22T03:25:16.772Z,51.10
2019-03-22T03:27:45.197Z,43.00
2019-03-22T03:30:20.789Z,39.17
2019-03-22T03:33:08.644Z,48.07
2019-03-22T03:35:37.412Z,39.90
2019-03-22T03:38:05.976Z,41.57
2019-03-22T03:40:34.429Z,40.53
2019-03-22T03:43:03.419Z,45.47
2019-03-22T03:45:36.735Z,43.07
2019-03-22T03:48:09.356Z,35.90
2019-03-22T03:50:38.225Z,48.13
2019-03-22T03:53:07.390Z,46.63
2019-03-22T03:55:55.301Z,44.90
2019-03-22T03:58:23.744Z,43.30
2019-03-22T04:00:52.188Z,43.70
2019-03-22T04:03:40.093Z,51.13
2019-03-22T04:06:08.721Z,42.53
2019-03-22T04:08:37.167Z,47.67
2019-03-22T04:11:05.618Z,44.77
2019-03-22T04:13:34.072Z,50.30
2019-03-22T04:16:02.501Z,49.10
2019-03-22T04:18:30.959Z,40.00
2019-03-22T04:20:59.423Z,43.63
2019-03-22T04:23:27.943Z,48.40
2019-03-22T04:25:56.459Z,42.60
2019-03-22T04:28:24.888Z,50.80
2019-03-22T04:31:12.680Z,44.23
2019-03-22T04:34:00.461Z,49.00
2019-03-22T04:36:28.911Z,44.00
2019-03-22T04:38:57.364Z,51.53
2019-03-22T04:41:45.162Z,42.90
2019-03-22T04:44:13.607Z,44.40
2019-03-22T04:47:02.923Z,45.80
2019-03-22T04:49:43.493Z,41.37
2019-03-22T04:52:24.327Z,47.10
2019-03-22T04:54:55.668Z,41.40
2019-03-22T04:57:25.100Z,46.90
2019-03-22T04:59:54.168Z,49.17
2019-03-22T05:02:22.737Z,47.47
2019-03-22T05:05:12.087Z,64.53
2019-03-22T05:07:41.945Z,57.80
2019-03-22T05:10:13.186Z,48.00
2019-03-22T05:12:42.956Z,55.60
2019-03-22T05:15:14.558Z,52.27
2019-03-22T05:17:44.021Z,62.80
2019-03-22T05:20:15.003Z,54.57
2019-03-22T05:22:44.399Z,52.20
2019-03-22T05:25:13.060Z,49.60
2019-03-22T05:27:43.919Z,50.43
2019-03-22T05:30:32.002Z,57.83
2019-03-22T05:33:00.456Z,65.80
2019-03-22T05:35:28.883Z,52.37
2019-03-22T05:37:57.339Z,57.77
2019-03-22T05:40:25.770Z,77.10
2019-03-22T05:42:54.437Z,64.30
2019-03-22T05:45:22.910Z,59.80
2019-03-22T05:47:51.396Z,59.97
2019-03-22T05:50:19.856Z,44.87
2019-03-22T05:52:48.315Z,52.00
2019-03-22T05:55:36.096Z,54.17
2019-03-22T05:58:04.554Z,49.47
2019-03-22T06:00:33.001Z,52.23
2019-03-22T06:03:01.464Z,63.33
2019-03-22T06:05:30.031Z,57.60
2019-03-22T06:07:58.479Z,54.27
2019-03-22T06:10:26.991Z,54.27
2019-03-22T06:12:55.456Z,58.17
2019-03-22T06:15:23.880Z,48.17
2019-03-22T06:17:52.348Z,49.70
2019-03-22T06:20:20.797Z,51.03
2019-03-22T06:23:08.592Z,50.17
2019-03-22T06:25:49.817Z,51.03
2019-03-22T06:28:18.243Z,53.30
2019-03-22T06:31:06.044Z,44.30
2019-03-22T06:33:34.524Z,49.00
2019-03-22T06:36:03.067Z,48.73
2019-03-22T06:38:31.570Z,60.63
2019-03-22T06:41:00.032Z,54.10
2019-03-22T06:43:47.852Z,51.40
2019-03-22T06:46:28.332Z,44.30
2019-03-22T06:48:56.790Z,35.07
2019-03-22T06:51:25.240Z,49.13
2019-03-22T06:53:53.719Z,50.83
2019-03-22T06:56:22.235Z,49.67
2019-03-22T06:58:50.665Z,46.00
2019-03-22T07:01:19.140Z,53.10
2019-03-22T07:03:47.568Z,46.70
2019-03-22T07:06:16.022Z,49.60
2019-03-22T07:11:41.878Z,52.60
2019-03-22T07:14:09.891Z,51.63
2019-03-22T07:16:39.208Z,39.83
2019-03-22T07:19:07.799Z,50.17
2019-03-22T07:21:36.239Z,52.83
2019-03-22T07:24:04.968Z,49.70
2019-03-22T07:26:33.421Z,50.20
2019-03-22T07:29:01.883Z,50.90
2019-03-22T07:31:30.340Z,50.60
2019-03-22T07:33:58.761Z,51.67
2019-03-22T07:36:27.212Z,51.40
2019-03-22T07:38:55.655Z,52.10
2019-03-22T07:41:24.299Z,53.00
2019-03-22T07:44:12.086Z,52.17
2019-03-22T07:46:40.624Z,54.47
2019-03-22T07:49:09.081Z,50.33
2019-03-22T07:51:37.568Z,53.37
2019-03-22T07:54:06.056Z,49.67
2019-03-22T07:56:34.585Z,49.40
2019-03-22T07:59:03.100Z,48.20
2019-03-22T08:01:31.534Z,53.30
2019-03-22T08:04:00.004Z,52.00
2019-03-22T08:06:28.556Z,49.93
2019-03-22T08:08:57.061Z,51.43
2019-03-22T08:11:25.594Z,50.70
2019-03-22T08:13:54.088Z,29.57
2019-03-22T08:16:22.574Z,51.70
2019-03-22T08:18:51.105Z,49.70
2019-03-22T08:21:38.953Z,50.00
2019-03-22T08:24:07.397Z,51.20
2019-03-22T08:26:35.861Z,50.70
2019-03-22T08:29:23.735Z,51.63
2019-03-22T08:31:52.218Z,50.93
2019-03-22T08:34:20.698Z,52.93
2019-03-22T08:36:49.167Z,54.23
2019-03-22T08:39:17.672Z,37.27
2019-03-22T08:41:46.165Z,52.30
2019-03-22T08:44:33.972Z,47.43
2019-03-22T08:47:02.469Z,56.43
2019-03-22T08:49:43.015Z,52.97
2019-03-22T08:52:11.625Z,52.33
2019-03-22T08:54:40.260Z,56.67
2019-03-22T08:57:08.709Z,54.10
2019-03-22T08:59:37.333Z,58.90
2019-03-22T09:02:25.202Z,57.20
2019-03-22T09:04:53.713Z,58.20
2019-03-22T09:07:24.434Z,59.07
2019-03-22T09:09:52.491Z,58.70
2019-03-22T09:12:21.016Z,56.43
2019-03-22T09:14:49.506Z,55.80
2019-03-22T09:17:37.301Z,57.27
2019-03-22T09:20:07.887Z,56.10
2019-03-22T09:22:36.399Z,57.90
2019-03-22T09:25:06.223Z,57.47
2019-03-22T09:27:47.029Z,52.47
2019-03-22T09:30:15.833Z,54.60
2019-03-22T09:32:44.396Z,54.80
2019-03-22T09:35:13.037Z,56.17
2019-03-22T09:37:41.536Z,52.97
2019-03-22T09:40:10.215Z,52.90
2019-03-22T09:42:38.670Z,55.00
2019-03-22T09:45:26.524Z,49.73
2019-03-22T09:47:54.969Z,52.03
2019-03-22T09:50:23.490Z,50.17
2019-03-22T09:52:51.983Z,56.37
2019-03-22T09:55:20.512Z,47.90
2019-03-22T09:57:49.550Z,55.73
2019-03-22T10:00:34.640Z,41.07
2019-03-22T10:03:15.329Z,51.50
2019-03-22T10:05:43.823Z,46.67
2019-03-22T10:08:12.325Z,45.03
2019-03-22T10:10:40.827Z,42.33
2019-03-22T10:13:09.313Z,40.70
2019-03-22T10:15:37.873Z,43.77
2019-03-22T10:18:06.836Z,40.40
2019-03-22T10:20:35.345Z,44.17
2019-03-22T10:23:04.001Z,43.13
2019-03-22T10:25:44.815Z,45.67
2019-03-22T10:28:13.253Z,44.03
2019-03-22T10:30:41.725Z,38.87
2019-03-22T10:33:22.180Z,34.43
2019-03-22T10:35:40.432Z,37.67
2019-03-22T10:38:31.932Z,41.20
2019-03-22T10:40:58.445Z,41.53
2019-03-22T10:43:26.893Z,39.40
2019-03-22T10:45:55.450Z,39.93
2019-03-22T10:48:23.931Z,37.30
2019-03-22T10:50:52.426Z,45.20
2019-03-22T10:53:20.954Z,39.40
2019-03-22T10:55:49.425Z,40.20
2019-03-22T10:58:21.263Z,40.67
2019-03-22T11:00:48.108Z,41.10
2019-03-22T11:03:16.653Z,42.70
2019-03-22T11:05:45.164Z,39.73
2019-03-22T11:08:33.018Z,39.23
2019-03-22T11:11:01.451Z,40.10
2019-03-22T11:13:49.241Z,39.20
2019-03-22T11:16:29.970Z,30.67
2019-03-22T11:18:58.431Z,35.67
2019-03-22T11:21:29.525Z,35.33
2019-03-22T11:24:17.319Z,34.83
2019-03-22T11:26:48.775Z,31.37
2019-03-22T11:29:36.654Z,37.60
2019-03-22T11:32:12.269Z,34.80
2019-03-22T11:34:54.685Z,29.40
2019-03-22T11:37:35.896Z,37.80
2019-03-22T11:40:07.695Z,34.93
2019-03-22T11:42:36.131Z,34.83
2019-03-22T11:45:07.900Z,34.97
2019-03-22T11:47:36.331Z,35.33
2019-03-22T11:50:24.391Z,36.33
2019-03-22T11:52:52.849Z,31.80
2019-03-22T11:55:21.310Z,35.37
2019-03-22T11:57:49.736Z,35.30
2019-03-22T12:00:37.533Z,33.30
2019-03-22T12:03:05.968Z,31.40
2019-03-22T12:05:40.317Z,30.33
2019-03-22T12:08:04.890Z,28.67
2019-03-22T12:10:33.393Z,27.73
2019-03-22T12:13:01.824Z,27.50
2019-03-22T12:15:30.287Z,23.73
2019-03-22T12:17:58.731Z,25.30
2019-03-22T12:20:27.292Z,22.03
2019-03-22T12:22:55.744Z,22.40
2019-03-22T12:25:25.753Z,20.60
2019-03-22T12:27:54.344Z,23.47
2019-03-22T12:30:42.208Z,21.67
2019-03-22T12:33:10.632Z,18.67
2019-03-22T12:35:58.421Z,16.33
2019-03-22T12:38:26.851Z,18.60
2019-03-22T12:41:14.654Z,16.80
2019-03-22T12:43:43.098Z,15.10
2019-03-22T12:46:11.667Z,13.50
2019-03-22T12:48:40.121Z,16.00
2019-03-22T12:51:08.583Z,15.33
2019-03-22T12:53:37.046Z,13.07
2019-03-22T12:56:05.555Z,15.00
2019-03-22T12:58:34.103Z,15.47
2019-03-22T13:01:21.899Z,14.60
2019-03-22T13:03:50.348Z,12.70
2019-03-22T13:06:18.805Z,12.47
2019-03-22T13:09:07.583Z,13.00
2019-03-22T13:11:36.041Z,12.40
2019-03-22T13:14:04.477Z,11.27
2019-03-22T13:16:33.062Z,12.43
2019-03-22T13:19:01.483Z,12.20
2019-03-22T13:21:49.288Z,12.13
2019-03-22T13:24:17.715Z,10.20
2019-03-22T13:26:58.802Z,11.90
2019-03-22T13:29:27.230Z,11.43
2019-03-22T13:31:55.687Z,11.27
2019-03-22T13:34:43.452Z,11.23
2019-03-22T13:37:24.449Z,11.00
2019-03-22T13:39:52.947Z,10.80
2019-03-22T13:42:21.391Z,10.37
2019-03-22T13:44:49.817Z,11.20
2019-03-22T13:47:18.273Z,11.27
2019-03-22T13:52:55.007Z,11.37
2019-03-22T13:55:23.574Z,11.00
2019-03-22T13:57:52.052Z,10.43
2019-03-22T14:00:20.640Z,10.00
2019-03-22T14:03:08.419Z,10.70
2019-03-22T14:05:56.190Z,9.73
2019-03-22T14:08:24.643Z,9.77
2019-03-22T14:13:41.865Z,9.50
2019-03-22T14:16:10.292Z,10.30
2019-03-22T14:18:59.966Z,9.00
2019-03-22T14:21:28.305Z,9.70
2019-03-22T14:23:56.756Z,9.33
2019-03-22T14:26:25.216Z,9.30
2019-03-22T14:29:13.009Z,8.60
2019-03-22T14:31:41.473Z,8.37
2019-03-22T14:34:09.976Z,8.50
2019-03-22T14:36:38.506Z,8.70
2019-03-22T14:39:08.973Z,8.17
2019-03-22T14:41:37.429Z,8.53
2019-03-22T14:44:05.939Z,8.57
2019-03-22T14:46:34.408Z,8.13
2019-03-22T14:49:02.849Z,7.10
2019-03-22T14:51:50.611Z,8.77
2019-03-22T14:54:19.148Z,7.10
2019-03-22T14:56:47.592Z,7.67
2019-03-22T14:59:16.044Z,7.67
2019-03-22T15:02:03.815Z,6.67
2019-03-22T15:04:32.267Z,8.17
2019-03-22T15:07:00.795Z,7.60
2019-03-22T15:09:29.247Z,7.53
2019-03-22T15:11:57.715Z,6.67
2019-03-22T15:14:27.771Z,6.93
2019-03-22T15:17:03.583Z,7.10
2019-03-22T15:25:49.964Z,7.17
2019-03-22T15:28:26.204Z,7.13
2019-03-22T15:31:15.648Z,7.20
2019-03-22T15:37:16.413Z,6.90
2019-03-22T15:40:04.225Z,6.97
2019-03-22T15:42:44.613Z,6.30
2019-03-22T15:45:14.060Z,6.10
2019-03-22T15:47:42.792Z,5.67
2019-03-22T15:50:17.267Z,5.87
2019-03-22T15:52:45.791Z,6.30
2019-03-22T15:55:14.323Z,5.97
2019-03-22T15:57:42.768Z,5.70
2019-03-22T16:00:30.539Z,5.57
2019-03-22T16:03:00.527Z,5.63
2019-03-22T16:05:48.294Z,5.50
2019-03-22T16:08:16.743Z,5.93
2019-03-22T16:11:04.600Z,5.40
2019-03-22T16:13:52.388Z,5.90
2019-03-22T16:16:20.803Z,6.13
2019-03-22T16:18:49.263Z,5.40
2019-03-22T16:21:17.670Z,6.50
2019-03-22T16:23:46.116Z,7.20
2019-03-22T16:26:14.528Z,8.30
2019-03-22T16:28:45.671Z,6.20
2019-03-22T16:31:33.461Z,7.40
2019-03-22T16:34:01.888Z,7.30
2019-03-22T16:36:33.807Z,6.70
2019-03-22T16:39:02.239Z,6.90
2019-03-22T16:41:30.699Z,7.20
2019-03-22T16:44:18.470Z,7.17
2019-03-22T16:46:48.247Z,7.50
2019-03-22T16:49:16.686Z,7.40
2019-03-22T16:51:48.213Z,6.60
2019-03-22T16:54:16.743Z,6.23
2019-03-22T16:56:45.174Z,9.33
2019-03-22T16:59:13.732Z,11.10
2019-03-22T17:01:42.264Z,8.63
2019-03-22T17:04:10.763Z,9.20
2019-03-22T17:06:51.547Z,8.13
2019-03-22T17:09:19.984Z,9.40
2019-03-22T17:12:07.782Z,11.27
2019-03-22T17:14:36.242Z,12.53
2019-03-22T17:17:24.034Z,11.00
2019-03-22T17:19:52.492Z,10.13
2019-03-22T17:22:20.964Z,10.57
2019-03-22T17:24:49.380Z,9.43
2019-03-22T17:27:37.172Z,9.10
2019-03-22T17:30:07.332Z,9.90
2019-03-22T17:32:35.781Z,8.37
2019-03-22T17:35:23.543Z,9.70
2019-03-22T17:37:52.236Z,8.53
2019-03-22T17:40:20.661Z,8.83
2019-03-22T17:43:08.469Z,10.90
2019-03-22T17:45:49.153Z,11.00
2019-03-22T17:48:29.794Z,10.23
2019-03-22T17:50:58.277Z,10.47
2019-03-22T17:53:26.718Z,9.90
2019-03-22T17:56:14.502Z,9.53
2019-03-22T17:58:42.933Z,8.47
2019-03-22T18:01:11.390Z,8.50
2019-03-22T18:03:59.168Z,8.03
2019-03-22T18:06:27.623Z,9.13
2019-03-22T18:08:56.041Z,9.90
2019-03-22T18:11:24.523Z,7.50
2019-03-22T18:14:12.285Z,7.73
2019-03-22T18:16:41.032Z,7.17
2019-03-22T18:19:09.543Z,8.27
2019-03-22T18:21:37.988Z,7.90
2019-03-22T18:24:25.799Z,7.13
2019-03-22T18:26:54.220Z,7.03
2019-03-22T18:29:22.947Z,7.83
2019-03-22T18:31:54.469Z,7.87
2019-03-22T18:34:23.293Z,7.57
2019-03-22T18:36:52.086Z,8.93
2019-03-22T18:39:23.930Z,8.27
2019-03-22T18:41:52.456Z,6.90
2019-03-22T18:44:21.267Z,7.80
2019-03-22T18:46:50.230Z,8.03
2019-03-22T18:49:18.744Z,8.70
2019-03-22T18:51:47.353Z,7.53
2019-03-22T18:54:15.861Z,8.17
2019-03-22T18:59:59.349Z,21.10
2019-03-22T19:02:28.009Z,21.30
2019-03-22T19:04:56.672Z,18.23
2019-03-22T19:07:44.492Z,17.13
2019-03-22T19:10:15.039Z,15.10
2019-03-22T19:12:43.503Z,15.53
2019-03-22T19:15:13.442Z,14.90
2019-03-22T19:17:41.969Z,14.70
2019-03-22T19:20:29.735Z,15.10
2019-03-22T19:22:58.194Z,15.20
2019-03-22T19:25:26.624Z,13.77
2019-03-22T19:27:55.045Z,13.63
2019-03-22T19:30:23.498Z,15.87
2019-03-22T19:32:51.958Z,15.30
2019-03-22T19:35:20.408Z,15.67
2019-03-22T19:38:08.172Z,16.30
2019-03-22T19:40:48.600Z,16.30
2019-03-22T19:43:17.051Z,15.50
2019-03-22T19:45:45.533Z,16.27
2019-03-22T19:48:14.034Z,16.43
2019-03-22T19:50:42.618Z,16.10
2019-03-22T19:53:11.153Z,17.10
2019-03-22T19:55:40.253Z,17.00
2019-03-22T19:58:08.876Z,18.00
2019-03-22T20:00:56.888Z,17.10
2019-03-22T20:03:25.753Z,18.50
2019-03-22T20:05:54.227Z,17.47
2019-03-22T20:08:42.024Z,18.53
2019-03-22T20:11:10.815Z,19.37
2019-03-22T20:13:39.332Z,18.13
2019-03-22T20:16:07.967Z,20.00
2019-03-22T20:18:36.734Z,19.43
2019-03-22T20:21:05.488Z,21.20
2019-03-22T20:23:34.305Z,21.07
2019-03-22T20:26:22.506Z,20.73
2019-03-22T20:28:51.605Z,24.03
2019-03-22T20:31:20.175Z,24.00
2019-03-22T20:33:48.990Z,22.57
2019-03-22T20:36:17.693Z,22.10
2019-03-22T20:38:46.212Z,24.03
2019-03-22T20:41:14.856Z,23.10
2019-03-22T20:43:43.278Z,25.87
2019-03-22T20:46:11.963Z,23.80
2019-03-22T20:48:40.575Z,26.30
2019-03-22T20:51:28.355Z,25.03
2019-03-22T20:53:57.210Z,26.67
2019-03-22T20:56:28.591Z,28.17
2019-03-22T20:58:57.081Z,26.93
2019-03-22T21:01:25.985Z,27.50
2019-03-22T21:03:54.675Z,29.00
2019-03-22T21:06:23.121Z,26.57
2019-03-22T21:09:00.772Z,28.40
2019-03-22T21:11:29.332Z,27.93
2019-03-22T21:13:57.817Z,26.40
2019-03-22T21:16:26.273Z,26.40
2019-03-22T21:19:14.035Z,28.50
2019-03-22T21:21:42.504Z,29.10
2019-03-22T21:24:10.927Z,27.50
2019-03-22T21:26:39.871Z,34.50
2019-03-22T21:29:09.091Z,30.07
2019-03-22T21:31:37.845Z,29.07
2019-03-22T21:34:08.065Z,29.83
2019-03-22T21:36:37.037Z,28.63
2019-03-22T21:39:07.408Z,32.87
2019-03-22T21:41:36.276Z,31.87
2019-03-22T21:44:04.963Z,29.03
2019-03-22T21:46:33.724Z,31.53
2019-03-22T21:49:02.251Z,31.03
2019-03-22T21:51:30.696Z,29.03
2019-03-22T21:54:18.496Z,29.57
2019-03-22T21:56:46.928Z,31.93
2019-03-22T21:59:15.352Z,32.93
2019-03-22T22:01:43.808Z,30.60
2019-03-22T22:04:12.247Z,30.87
2019-03-22T22:06:41.027Z,32.83
2019-03-22T22:09:12.304Z,33.20
2019-03-22T22:11:41.574Z,31.23
2019-03-22T22:14:10.134Z,34.47
2019-03-22T22:16:38.574Z,33.00
2019-03-22T22:19:07.049Z,34.70
2019-03-22T22:24:24.263Z,32.17
2019-03-22T22:26:52.803Z,33.00
2019-03-22T22:29:21.300Z,32.97
2019-03-22T22:31:49.739Z,34.77
2019-03-22T22:34:18.175Z,32.33
2019-03-22T22:36:46.657Z,36.37
2019-03-22T22:39:15.116Z,36.27
2019-03-22T22:41:43.545Z,34.13
2019-03-22T22:44:12.027Z,36.13
2019-03-22T22:46:40.590Z,32.03
2019-03-22T22:49:09.046Z,37.50
2019-03-22T22:51:37.492Z,34.20
2019-03-22T22:54:05.980Z,38.70
2019-03-22T22:56:34.487Z,28.13
2019-03-22T22:59:02.961Z,39.20
2019-03-22T23:01:31.412Z,39.83
2019-03-22T23:04:19.235Z,38.83
2019-03-22T23:06:47.703Z,38.40
2019-03-22T23:09:16.250Z,38.57
2019-03-22T23:11:44.710Z,41.57
2019-03-22T23:14:32.487Z,40.57
2019-03-22T23:17:00.932Z,35.03
2019-03-22T23:19:29.775Z,35.43
2019-03-22T23:21:58.278Z,36.47
2019-03-22T23:24:26.744Z,41.47
2019-03-22T23:26:55.163Z,30.53
2019-03-22T23:29:23.628Z,39.10
2019-03-22T23:32:04.041Z,39.00
2019-03-22T23:34:32.501Z,40.60
2019-03-22T23:37:00.950Z,39.47
2019-03-22T23:39:29.416Z,37.07
2019-03-22T23:41:57.862Z,40.87
2019-03-22T23:44:26.321Z,42.63
2019-03-22T23:46:54.788Z,38.53
2019-03-22T23:49:23.266Z,40.10
2019-03-22T23:55:06.164Z,39.70
2019-03-22T23:57:34.641Z,40.70
